Time;durP1;ratioP1;P1;durP2;ratioP2;P2;SDS_P1;SDS_P2;PMS_P1;PMS_P2;Temp;Humidity;BMP_temperature;BMP_pressure;BME280_temperature;BME280_humidity;BME280_pressure;Samples;Min_cycle;Max_cycle;Signal;HPM_P1;HPM_P2
2022/12/30 00:00:09;;;;;;;20.50;17.30;;;;;;;5.60;99.71;93543.56;5089953;28;20247;-73
2022/12/30 00:02:35;;;;;;;22.03;18.23;;;;;;;5.71;99.67;93555.75;5089201;28;20215;-74
2022/12/30 00:05:01;;;;;;;17.90;16.33;;;;;;;5.69;99.78;93555.16;5092091;28;20280;-73
2022/12/30 00:07:26;;;;;;;19.97;17.87;;;;;;;5.51;99.95;93535.34;5090379;28;20189;-73
2022/12/30 00:09:53;;;;;;;20.03;16.90;;;;;;;5.77;99.46;93557.44;5090554;28;20268;-73
2022/12/30 00:34:21;;;;;;;18.93;16.97;;;;;;;5.62;99.19;93580.41;5089986;28;20258;-73
2022/12/30 00:36:49;;;;;;;18.50;16.50;;;;;;;5.77;99.25;93580.75;5088080;28;20200;-73
2022/12/30 00:39:14;;;;;;;19.33;17.23;;;;;;;5.69;99.02;93578.47;5090077;28;20228;-73
2022/12/30 00:44:24;;;;;;;20.23;17.13;;;;;;;5.73;98.62;93583.00;5090196;28;20235;-73
2022/12/30 00:46:49;;;;;;;19.17;17.03;;;;;;;5.65;99.23;93585.13;5089594;28;20181;-73
2022/12/30 00:57:28;;;;;;;18.40;16.73;;;;;;;5.37;100.00;93559.09;5086565;28;20195;-73
2022/12/30 00:59:54;;;;;;;22.83;16.70;;;;;;;5.40;100.00;93561.25;5088640;28;20232;-73
2022/12/30 01:02:20;;;;;;;18.90;17.10;;;;;;;5.45;100.00;93561.38;5089647;28;20234;-73
2022/12/30 01:04:45;;;;;;;18.57;16.67;;;;;;;5.39;100.00;93565.63;5089780;28;20232;-73
2022/12/30 01:07:11;;;;;;;17.80;16.07;;;;;;;5.42;100.00;93569.56;5090012;28;20244;-73
2022/12/30 01:09:36;;;;;;;17.70;15.97;;;;;;;5.42;99.89;93562.59;5088663;28;20307;-73
2022/12/30 01:12:09;;;;;;;19.03;17.20;;;;;;;5.40;99.62;93561.25;5089576;28;20177;-73
2022/12/30 01:14:41;;;;;;;19.30;15.97;;;;;;;5.29;100.00;93562.00;5090095;28;20231;-73
2022/12/30 01:17:09;;;;;;;17.57;15.63;;;;;;;5.30;100.00;93558.41;5089341;28;20192;-73
2022/12/30 01:19:34;;;;;;;18.20;15.53;;;;;;;5.32;100.00;93561.56;5087672;28;20228;-73
2022/12/30 01:22:00;;;;;;;17.07;15.57;;;;;;;5.24;100.00;93569.66;5090124;28;20215;-73
2022/12/30 01:24:25;;;;;;;17.33;15.60;;;;;;;5.34;100.00;93564.72;5092237;28;20236;-73
2022/12/30 01:26:51;;;;;;;16.87;15.23;;;;;;;5.19;100.00;93559.16;5089975;28;20191;-74
2022/12/30 01:29:23;;;;;;;16.93;15.20;;;;;;;5.20;100.00;93558.19;5087744;28;20224;-73
2022/12/30 01:31:48;;;;;;;17.27;15.00;;;;;;;5.06;100.00;93542.03;5090136;28;20215;-73
2022/12/30 01:34:14;;;;;;;17.00;15.40;;;;;;;5.22;100.00;93551.75;5088827;28;20220;-73
2022/12/30 01:36:39;;;;;;;16.23;14.77;;;;;;;5.13;100.00;93550.50;5090138;28;20279;-73
2022/12/30 01:39:04;;;;;;;16.50;15.00;;;;;;;5.26;100.00;93546.94;5091899;28;20251;-73
2022/12/30 01:41:30;;;;;;;16.20;14.77;;;;;;;5.23;100.00;93542.97;5093115;28;20214;-73
2022/12/30 01:43:55;;;;;;;16.80;15.03;;;;;;;5.14;100.00;93546.13;5093244;28;20192;-73
2022/12/30 01:46:30;;;;;;;16.40;14.80;;;;;;;5.10;100.00;93542.38;5093644;28;20240;-73
2022/12/30 01:48:58;;;;;;;15.87;14.40;;;;;;;5.15;100.00;93543.31;5091598;28;20188;-73
2022/12/30 01:51:29;;;;;;;16.23;14.67;;;;;;;5.17;100.00;93540.50;5093523;28;20185;-73
2022/12/30 01:53:58;;;;;;;16.83;15.23;;;;;;;4.87;100.00;93538.72;5092952;28;20181;-73
2022/12/30 01:56:29;;;;;;;16.90;15.30;;;;;;;5.07;100.00;93553.19;5092223;28;20229;-73
2022/12/30 01:59:03;;;;;;;16.63;15.03;;;;;;;5.11;100.00;93549.94;5092591;28;20204;-73
2022/12/30 02:01:30;;;;;;;15.73;14.30;;;;;;;5.02;100.00;93546.09;5092580;28;20187;-73
2022/12/30 02:04:07;;;;;;;15.83;14.40;;;;;;;5.01;100.00;93549.69;5092259;28;20196;-73
2022/12/30 02:07:08;;;;;;;16.13;14.63;;;;;;;5.10;100.00;93548.38;5093656;28;20187;-73
2022/12/30 02:09:35;;;;;;;16.90;15.27;;;;;;;5.06;100.00;93536.84;5092018;28;20250;-73
2022/12/30 02:12:03;;;;;;;16.47;14.90;;;;;;;5.07;100.00;93535.88;5094262;28;20257;-73
2022/12/30 02:14:32;;;;;;;17.20;15.40;;;;;;;5.11;100.00;93528.44;5092671;28;20323;-73
2022/12/30 02:17:16;;;;;;;16.77;14.97;;;;;;;5.05;100.00;93537.88;5092086;28;20189;-73
2022/12/30 02:20:19;;;;;;;17.03;15.30;;;;;;;5.01;100.00;93539.34;5092547;28;20267;-73
2022/12/30 02:22:50;;;;;;;16.20;14.70;;;;;;;5.05;100.00;93539.66;5091706;28;20862;-73
2022/12/30 02:25:34;;;;;;;17.63;15.77;;;;;;;5.09;100.00;93535.66;5092575;28;21023;-73
2022/12/30 02:28:28;;;;;;;19.70;17.73;;;;;;;4.94;100.00;93543.81;5090961;28;20193;-73
2022/12/30 02:31:02;;;;;;;18.63;16.77;;;;;;;5.04;100.00;93532.94;5092504;28;20233;-74
2022/12/30 02:33:44;;;;;;;19.70;17.73;;;;;;;4.94;100.00;93534.25;5091525;28;20206;-73
2022/12/30 02:36:39;;;;;;;19.50;17.50;;;;;;;5.03;100.00;93533.94;5125126;27;20227;-73
2022/12/30 02:39:33;;;;;;;17.10;15.23;;;;;;;4.98;100.00;93539.75;5091965;28;20228;-73
2022/12/30 02:45:14;;;;;;;22.37;17.43;;;;;;;4.72;100.00;93532.38;5091775;28;20231;-73
2022/12/30 02:47:44;;;;;;;17.70;15.47;;;;;;;4.72;100.00;93533.19;5092406;28;20208;-73
2022/12/30 02:53:01;;;;;;;20.73;16.63;;;;;;;4.36;100.00;93483.34;5093018;28;20188;-73
2022/12/30 02:55:26;;;;;;;19.10;15.93;;;;;;;4.50;100.00;93532.09;5090162;28;20243;-73
2022/12/30 02:57:52;;;;;;;18.90;16.93;;;;;;;4.45;100.00;93528.59;5090535;28;20256;-74
2022/12/30 03:06:19;;;;;;;17.83;15.80;;;;;;;4.31;100.00;93530.53;5089907;28;20223;-74
2022/12/30 03:08:57;;;;;;;17.77;15.97;;;;;;;4.25;100.00;93515.91;5091872;28;20188;-73
2022/12/30 03:11:23;;;;;;;18.33;16.43;;;;;;;4.07;100.00;93513.34;5092090;28;20195;-73
2022/12/30 03:13:48;;;;;;;19.90;17.20;;;;;;;4.22;100.00;93521.50;5091855;28;20184;-73
2022/12/30 03:16:23;;;;;;;18.43;16.70;;;;;;;3.96;100.00;93521.81;5092331;28;20809;-74
2022/12/30 03:18:50;;;;;;;19.13;16.97;;;;;;;4.05;100.00;93528.25;5090542;28;20247;-73
2022/12/30 03:21:18;;;;;;;19.17;17.27;;;;;;;4.03;100.00;93534.66;5090883;28;20279;-73
2022/12/30 03:29:23;;;;;;;20.33;17.97;;;;;;;3.77;100.00;93538.31;5092940;28;20255;-73
2022/12/30 03:31:49;;;;;;;24.10;18.10;;;;;;;3.72;100.00;93522.66;5091590;28;20176;-73
2022/12/30 03:34:15;;;;;;;25.00;19.60;;;;;;;3.71;100.00;93534.00;5090727;28;20227;-73
2022/12/30 03:36:45;;;;;;;20.77;18.60;;;;;;;3.70;100.00;93544.53;5091611;28;20193;-72
2022/12/30 03:39:17;;;;;;;28.23;20.77;;;;;;;3.73;100.00;93542.34;5089632;28;20248;-73
2022/12/30 03:41:47;;;;;;;54.37;28.77;;;;;;;3.61;100.00;93544.03;5089232;28;20200;-73
2022/12/30 03:44:13;;;;;;;30.13;22.17;;;;;;;3.67;100.00;93552.72;5091094;28;20264;-75
2022/12/30 03:46:41;;;;;;;25.10;19.60;;;;;;;3.53;100.00;93539.16;5092162;28;20192;-74
2022/12/30 03:49:06;;;;;;;21.97;19.17;;;;;;;3.65;100.00;93549.56;5090598;28;20232;-73
2022/12/30 03:51:31;;;;;;;21.03;18.80;;;;;;;3.59;100.00;93553.00;5091003;28;20248;-73
2022/12/30 03:53:57;;;;;;;22.63;19.40;;;;;;;3.61;100.00;93548.41;5090191;28;20177;-73
2022/12/30 03:56:22;;;;;;;19.80;17.23;;;;;;;3.70;100.00;93550.50;5089661;28;20180;-73
2022/12/30 03:58:48;;;;;;;23.37;17.67;;;;;;;3.77;100.00;93543.47;5090791;28;20187;-73
2022/12/30 04:01:13;;;;;;;20.90;17.87;;;;;;;3.65;100.00;93547.78;5089576;28;20193;-73
2022/12/30 04:03:38;;;;;;;22.60;19.47;;;;;;;3.78;100.00;93552.81;5091899;28;20219;-73
2022/12/30 04:06:04;;;;;;;24.43;18.70;;;;;;;3.70;100.00;93550.50;5090482;28;20231;-73
2022/12/30 04:08:29;;;;;;;20.07;17.93;;;;;;;3.67;100.00;93555.31;5090511;28;20201;-73
2022/12/30 04:10:55;;;;;;;19.93;17.77;;;;;;;3.82;100.00;93559.13;5090221;28;20244;-73
2022/12/30 04:13:20;;;;;;;18.33;16.43;;;;;;;3.86;100.00;93559.50;5090844;28;20207;-73
2022/12/30 04:15:50;;;;;;;20.80;17.20;;;;;;;3.83;100.00;93552.19;5091137;28;20228;-73
2022/12/30 04:18:17;;;;;;;17.53;15.93;;;;;;;3.98;100.00;93568.91;5089917;28;20196;-73
2022/12/30 04:20:42;;;;;;;19.03;17.07;;;;;;;4.05;100.00;93571.38;5089647;28;20235;-73
2022/12/30 04:23:08;;;;;;;17.10;15.33;;;;;;;4.03;100.00;93570.84;5089636;28;20216;-74
2022/12/30 04:25:34;;;;;;;19.17;17.17;;;;;;;4.01;100.00;93555.56;5090071;28;20226;-73
2022/12/30 04:27:59;;;;;;;22.93;19.70;;;;;;;4.12;100.00;93560.00;5090028;28;20192;-73
2022/12/30 04:30:24;;;;;;;32.40;22.53;;;;;;;4.24;100.00;93566.03;5089979;28;20212;-73
2022/12/30 04:32:50;;;;;;;26.40;20.67;;;;;;;4.38;100.00;93582.94;5090516;28;20188;-74
2022/12/30 04:35:15;;;;;;;29.60;21.33;;;;;;;4.31;100.00;93576.28;5092617;28;20235;-74
2022/12/30 04:37:41;;;;;;;29.07;21.13;;;;;;;4.47;100.00;93576.47;5088786;28;20185;-73
2022/12/30 04:40:07;;;;;;;29.83;20.30;;;;;;;4.45;100.00;93575.91;5088645;28;20225;-73
2022/12/30 04:42:33;;;;;;;24.00;18.63;;;;;;;4.55;100.00;93581.34;5088948;28;20201;-73
2022/12/30 04:44:58;;;;;;;21.40;18.03;;;;;;;4.50;100.00;93570.06;5090709;28;20687;-74
2022/12/30 04:47:23;;;;;;;20.60;18.40;;;;;;;4.45;100.00;93565.56;5090170;28;20184;-74
2022/12/30 04:49:49;;;;;;;19.40;16.77;;;;;;;4.26;100.00;93539.97;5089341;28;20270;-74
2022/12/30 04:52:14;;;;;;;28.23;18.60;;;;;;;4.41;100.00;93572.19;5090421;28;20211;-73
2022/12/30 04:54:40;;;;;;;19.37;16.73;;;;;;;4.48;100.00;93585.81;5089778;28;20228;-73
2022/12/30 04:57:05;;;;;;;18.77;16.70;;;;;;;4.50;100.00;93581.22;5089620;28;20180;-74
2022/12/30 04:59:30;;;;;;;18.40;16.43;;;;;;;4.54;100.00;93582.38;5089246;28;20262;-74
2022/12/30 05:01:56;;;;;;;18.80;16.87;;;;;;;4.47;100.00;93588.59;5089689;28;20212;-74
2022/12/30 05:04:21;;;;;;;19.13;17.10;;;;;;;4.42;100.00;93586.66;5089542;28;20225;-74
2022/12/30 05:06:47;;;;;;;20.57;17.43;;;;;;;4.30;100.00;93578.06;5105058;28;20188;-73
2022/12/30 05:09:12;;;;;;;18.40;16.53;;;;;;;4.21;100.00;93584.53;5090042;28;20296;-73
2022/12/30 05:11:38;;;;;;;18.17;16.27;;;;;;;4.19;100.00;93585.75;5089605;28;20203;-74
2022/12/30 05:14:03;;;;;;;18.30;16.40;;;;;;;4.23;100.00;93581.75;5087882;28;20242;-73
2022/12/30 05:16:28;;;;;;;19.80;17.37;;;;;;;4.21;100.00;93589.72;5089971;28;20232;-73
2022/12/30 05:18:54;;;;;;;21.70;17.63;;;;;;;4.25;100.00;93601.19;5090225;28;20177;-73
2022/12/30 05:21:19;;;;;;;23.63;20.43;;;;;;;4.18;100.00;93600.47;5089051;28;20180;-73
2022/12/30 05:26:28;;;;;;;21.30;17.57;;;;;;;4.19;100.00;93602.06;5089173;28;20191;-73
2022/12/30 05:28:54;;;;;;;19.83;17.27;;;;;;;4.12;100.00;93597.97;5088925;28;20200;-73
2022/12/30 05:31:20;;;;;;;22.57;17.83;;;;;;;3.98;100.00;93610.22;5089770;28;20181;-73
2022/12/30 05:33:45;;;;;;;21.00;18.67;;;;;;;4.03;100.00;93607.78;5087518;28;20180;-73
2022/12/30 05:36:11;;;;;;;19.27;17.33;;;;;;;3.98;100.00;93615.41;5088702;28;20188;-73
2022/12/30 05:38:37;;;;;;;23.80;16.97;;;;;;;4.04;100.00;93613.75;5090641;28;20184;-72
2022/12/30 05:41:03;;;;;;;20.00;17.83;;;;;;;3.97;100.00;93611.22;5089649;28;20212;-73
2022/12/30 05:43:28;;;;;;;20.83;18.53;;;;;;;3.85;100.00;93612.13;5089489;28;20224;-73
2022/12/30 05:45:54;;;;;;;25.00;18.47;;;;;;;3.74;100.00;93598.13;5087950;28;20216;-73
2022/12/30 05:48:19;;;;;;;27.07;20.00;;;;;;;3.81;100.00;93616.94;5089355;28;20201;-73
2022/12/30 05:50:47;;;;;;;29.47;20.27;;;;;;;3.67;100.00;93618.06;5088204;28;20228;-73
2022/12/30 05:53:13;;;;;;;28.07;20.70;;;;;;;3.69;100.00;93623.78;5089842;28;20193;-72
2022/12/30 05:55:38;;;;;;;26.00;19.50;;;;;;;3.75;100.00;93622.94;5089688;28;20281;-73
2022/12/30 05:58:04;;;;;;;30.03;21.83;;;;;;;3.57;100.00;93622.91;5090976;28;20235;-73
2022/12/30 06:00:29;;;;;;;25.63;20.07;;;;;;;3.78;100.00;93621.75;5088787;28;20216;-73
2022/12/30 06:02:55;;;;;;;26.60;19.87;;;;;;;3.55;100.00;93614.56;5089186;28;20653;-72
2022/12/30 06:05:21;;;;;;;27.63;23.13;;;;;;;3.48;100.00;93629.34;5088040;28;20243;-73
2022/12/30 06:07:46;;;;;;;27.47;21.47;;;;;;;3.50;100.00;93629.13;5088287;28;20240;-73
2022/12/30 06:10:11;;;;;;;26.70;19.97;;;;;;;3.42;100.00;93621.63;5089030;28;20217;-73
2022/12/30 06:12:37;;;;;;;24.07;19.90;;;;;;;3.39;100.00;93612.53;5088839;28;20184;-73
2022/12/30 06:15:02;;;;;;;27.10;19.97;;;;;;;3.62;100.00;93630.81;5089889;28;20212;-73
2022/12/30 06:17:28;;;;;;;24.60;19.70;;;;;;;3.59;100.00;93633.81;5089003;28;20185;-73
2022/12/30 06:19:53;;;;;;;23.70;18.30;;;;;;;3.62;100.00;93630.81;5088416;28;20212;-73
2022/12/30 06:22:19;;;;;;;22.50;20.03;;;;;;;3.80;100.00;93625.69;5088218;28;20224;-73
2022/12/30 06:24:44;;;;;;;21.33;18.07;;;;;;;3.79;100.00;93634.44;5089603;28;20227;-73
2022/12/30 06:27:09;;;;;;;21.53;18.60;;;;;;;3.93;100.00;93630.75;5093503;28;20185;-73
2022/12/30 06:29:35;;;;;;;21.00;18.33;;;;;;;4.00;100.00;93621.13;5092019;28;20240;-73
2022/12/30 06:32:00;;;;;;;24.23;18.60;;;;;;;4.03;100.00;93632.84;5092910;28;20191;-73
2022/12/30 06:34:26;;;;;;;23.20;18.27;;;;;;;4.11;100.00;93635.91;5091410;28;20254;-72
2022/12/30 06:36:51;;;;;;;19.97;17.87;;;;;;;4.18;100.00;93636.66;5093041;28;20180;-73
2022/12/30 06:39:17;;;;;;;23.37;18.73;;;;;;;4.19;100.00;93643.41;5091107;28;20284;-72
2022/12/30 06:41:42;;;;;;;22.97;16.70;;;;;;;4.06;100.00;93633.19;5092104;28;20188;-73
2022/12/30 06:44:07;;;;;;;25.10;19.33;;;;;;;4.36;100.00;93643.59;5092669;28;20803;-73
2022/12/30 06:46:33;;;;;;;23.20;17.90;;;;;;;4.30;100.00;93634.94;5091798;28;20244;-73
2022/12/30 06:48:58;;;;;;;23.10;17.97;;;;;;;4.38;100.00;93642.41;5093536;28;20208;-73
2022/12/30 06:51:24;;;;;;;21.97;17.90;;;;;;;4.31;100.00;93648.66;5092702;28;20199;-73
2022/12/30 06:53:49;;;;;;;20.73;18.50;;;;;;;4.22;100.00;93632.63;5091710;28;20203;-72
2022/12/30 06:56:14;;;;;;;20.90;18.30;;;;;;;4.31;100.00;93654.59;5092205;28;20193;-73
2022/12/30 06:58:40;;;;;;;19.50;17.50;;;;;;;4.35;100.00;93657.53;5091667;28;20192;-73
2022/12/30 07:01:05;;;;;;;27.27;19.57;;;;;;;4.35;100.00;93655.75;5093100;28;20231;-73
2022/12/30 07:03:30;;;;;;;21.27;18.63;;;;;;;4.30;100.00;93649.63;5091803;28;20208;-72
2022/12/30 07:05:56;;;;;;;25.80;20.50;;;;;;;4.25;100.00;93654.69;5090090;28;20284;-73
2022/12/30 07:08:21;;;;;;;25.00;19.77;;;;;;;4.30;100.00;93667.72;5094167;28;20200;-72
2022/12/30 07:10:47;;;;;;;31.97;21.83;;;;;;;4.40;100.00;93668.84;5091176;28;20246;-73
2022/12/30 07:13:16;;;;;;;24.70;20.40;;;;;;;4.34;100.00;93661.91;5092008;28;20215;-73
2022/12/30 07:15:42;;;;;;;26.73;22.17;;;;;;;4.40;100.00;93675.78;5091642;28;20213;-74
2022/12/30 07:18:08;;;;;;;27.67;21.80;;;;;;;4.36;100.00;93649.56;5091971;28;20251;-73
2022/12/30 07:20:33;;;;;;;30.10;22.13;;;;;;;4.58;100.00;93670.63;5092009;28;20212;-73
2022/12/30 07:22:59;;;;;;;32.93;23.50;;;;;;;4.60;100.00;93666.81;5091073;28;20223;-72
2022/12/30 07:25:25;;;;;;;28.77;22.30;;;;;;;4.64;100.00;93670.56;5090452;28;20300;-73
2022/12/30 07:27:56;;;;;;;35.00;21.80;;;;;;;4.79;100.00;93658.03;5090775;28;20180;-73
2022/12/30 07:30:21;;;;;;;32.07;22.00;;;;;;;4.92;100.00;93664.84;5091747;28;20224;-73
2022/12/30 07:32:47;;;;;;;25.50;20.43;;;;;;;4.73;100.00;93656.31;5091808;28;20188;-74
2022/12/30 07:35:12;;;;;;;41.37;25.50;;;;;;;4.82;100.00;93654.22;5091241;28;20239;-73
2022/12/30 07:37:38;;;;;;;40.57;25.77;;;;;;;5.24;100.00;93668.81;5089991;28;20849;-73
2022/12/30 07:40:04;;;;;;;38.33;24.87;;;;;;;4.91;100.00;93676.22;5088896;28;20246;-73
2022/12/30 07:42:30;;;;;;;51.30;31.53;;;;;;;4.87;100.00;93651.78;5091322;28;20216;-73
2022/12/30 07:44:55;;;;;;;67.03;36.77;;;;;;;5.11;100.00;93674.16;5091035;28;20468;-73
2022/12/30 07:47:20;;;;;;;59.27;37.53;;;;;;;5.09;100.00;93671.00;5090782;28;20686;-73
2022/12/30 07:49:46;;;;;;;63.93;36.30;;;;;;;5.18;100.00;93676.66;5090935;28;20259;-73
2022/12/30 07:52:11;;;;;;;64.10;39.10;;;;;;;5.05;100.00;93682.00;5092345;28;20173;-73
2022/12/30 07:54:36;;;;;;;63.10;39.83;;;;;;;5.09;100.00;93677.97;5090147;28;20224;-73
2022/12/30 07:57:02;;;;;;;39.13;27.43;;;;;;;5.29;100.00;93671.53;5090804;28;20185;-73
2022/12/30 07:59:27;;;;;;;42.67;29.10;;;;;;;5.32;100.00;93678.06;5090277;28;20224;-73
2022/12/30 08:01:53;;;;;;;38.03;28.17;;;;;;;5.31;100.00;93682.44;5091076;28;20195;-73
2022/12/30 08:04:18;;;;;;;47.50;32.43;;;;;;;5.44;100.00;93678.88;5090048;28;20228;-73
2022/12/30 08:06:43;;;;;;;40.63;29.20;;;;;;;5.35;100.00;93675.03;5090012;28;20191;-73
2022/12/30 08:09:09;;;;;;;49.30;31.40;;;;;;;5.56;100.00;93683.09;5090331;28;20221;-73
2022/12/30 08:11:34;;;;;;;44.60;29.53;;;;;;;5.78;100.00;93675.59;5089572;28;20201;-73
2022/12/30 08:14:00;;;;;;;34.70;25.20;;;;;;;5.92;100.00;93679.56;5089455;28;20189;-73
2022/12/30 08:16:25;;;;;;;33.90;24.77;;;;;;;5.99;99.82;93680.28;5091007;28;20195;-73
2022/12/30 08:18:51;;;;;;;35.93;25.07;;;;;;;6.14;98.73;93665.06;5090018;28;20168;-73
2022/12/30 08:21:17;;;;;;;40.83;26.90;;;;;;;6.07;98.77;93665.16;5089750;28;20192;-73
2022/12/30 08:23:44;;;;;;;45.57;28.60;;;;;;;6.02;99.73;93672.06;5090433;28;20233;-72
2022/12/30 08:26:21;;;;;;;41.93;29.00;;;;;;;5.98;100.00;93665.72;5089370;28;20188;-72
2022/12/30 08:28:47;;;;;;;44.03;29.93;;;;;;;6.17;100.00;93672.38;5089961;28;20251;-73
2022/12/30 08:31:16;;;;;;;49.97;32.10;;;;;;;6.21;99.87;93676.13;5090419;28;20189;-73
2022/12/30 08:33:41;;;;;;;47.57;33.10;;;;;;;6.23;99.65;93674.06;5089471;28;20288;-73
2022/12/30 08:36:10;;;;;;;48.83;33.37;;;;;;;6.45;98.05;93678.47;5088695;28;20200;-73
2022/12/30 08:38:37;;;;;;;46.50;31.57;;;;;;;6.51;98.05;93679.34;5090092;28;20225;-73
2022/12/30 08:41:12;;;;;;;46.10;32.57;;;;;;;6.71;96.48;93682.38;5088340;28;20244;-73
2022/12/30 08:43:37;;;;;;;52.73;34.80;;;;;;;6.71;94.59;93692.75;5090805;28;20294;-72
2022/12/30 08:46:03;;;;;;;62.00;40.00;;;;;;;6.32;98.18;93696.06;5089797;28;20250;-73
2022/12/30 08:48:30;;;;;;;65.57;39.90;;;;;;;6.62;96.79;93696.72;5089583;28;20185;-73
2022/12/30 08:50:56;;;;;;;60.90;38.33;;;;;;;6.63;96.69;93698.28;5088868;28;20220;-73
2022/12/30 08:53:22;;;;;;;59.00;37.83;;;;;;;6.79;95.61;93689.81;5089906;28;20177;-72
2022/12/30 08:55:47;;;;;;;55.23;38.57;;;;;;;6.50;96.81;93683.78;5088824;28;20204;-73
2022/12/30 08:58:13;;;;;;;54.07;34.83;;;;;;;6.53;97.76;93690.31;5090497;28;20180;-73
2022/12/30 09:00:38;;;;;;;53.80;36.07;;;;;;;6.57;96.89;93676.66;5089034;28;20235;-73
2022/12/30 09:03:04;;;;;;;47.80;35.33;;;;;;;6.97;94.42;93681.88;5089888;28;20235;-73
2022/12/30 09:05:32;;;;;;;54.77;35.43;;;;;;;6.88;94.72;93682.47;5089375;28;20263;-73
2022/12/30 09:07:57;;;;;;;50.03;33.70;;;;;;;6.98;94.49;93683.44;5090052;28;20209;-73
2022/12/30 09:10:23;;;;;;;49.80;34.57;;;;;;;6.54;96.63;93684.09;5088600;28;20212;-73
2022/12/30 09:12:48;;;;;;;51.80;35.00;;;;;;;6.64;95.66;93670.53;5089212;28;20184;-73
2022/12/30 09:15:14;;;;;;;44.20;30.73;;;;;;;6.66;95.92;93682.28;5090181;28;20221;-73
2022/12/30 09:17:39;;;;;;;47.30;33.40;;;;;;;6.84;95.45;93676.94;5088706;28;20283;-73
2022/12/30 09:20:05;;;;;;;43.10;28.67;;;;;;;6.91;95.00;93672.41;5089443;28;21219;-73
2022/12/30 09:22:30;;;;;;;48.43;31.40;;;;;;;6.74;95.88;93676.72;5088863;28;20240;-74
2022/12/30 09:24:56;;;;;;;46.13;30.23;;;;;;;6.90;95.07;93659.66;5089094;28;20221;-75
2022/12/30 09:27:21;;;;;;;39.67;29.07;;;;;;;6.94;95.03;93676.34;5089312;28;20733;-73
2022/12/30 09:29:46;;;;;;;44.40;29.53;;;;;;;7.00;93.73;93675.44;5088819;28;20316;-73
2022/12/30 09:32:12;;;;;;;42.90;26.57;;;;;;;7.16;93.43;93675.47;5089094;28;20188;-73
2022/12/30 09:34:37;;;;;;;41.00;27.47;;;;;;;7.38;91.79;93668.63;5088597;28;20236;-73
2022/12/30 09:37:03;;;;;;;39.40;28.60;;;;;;;7.53;90.08;93671.47;5089548;28;20193;-73
2022/12/30 09:39:31;;;;;;;40.93;29.90;;;;;;;7.55;89.90;93669.44;5088240;28;20255;-73
2022/12/30 09:45:11;;;;;;;38.40;25.97;;;;;;;7.86;87.77;93666.34;5088231;28;20231;-73
2022/12/30 09:47:47;;;;;;;36.77;27.77;;;;;;;7.68;88.57;93669.16;5089732;28;20223;-73
2022/12/30 09:50:39;;;;;;;36.43;27.43;;;;;;;7.70;89.21;93667.13;5087450;28;20299;-73
2022/12/30 09:53:08;;;;;;;39.33;26.73;;;;;;;7.80;88.39;93656.88;5089010;28;20273;-73
2022/12/30 09:55:41;;;;;;;37.50;26.23;;;;;;;7.50;89.27;93638.19;5088906;28;20292;-73
2022/12/30 09:58:11;;;;;;;39.23;28.10;;;;;;;7.38;90.76;93623.66;5089020;28;20185;-73
2022/12/30 10:00:37;;;;;;;48.07;28.63;;;;;;;7.59;89.57;93644.59;5090926;28;20223;-73
2022/12/30 10:03:12;;;;;;;47.07;28.53;;;;;;;7.85;87.68;93630.97;5092531;28;20208;-73
2022/12/30 10:05:40;;;;;;;42.60;28.97;;;;;;;7.87;88.49;93635.94;5090054;28;20298;-73
2022/12/30 10:08:12;;;;;;;42.00;29.30;;;;;;;7.52;89.81;93635.34;5092651;28;20239;-73
2022/12/30 10:10:44;;;;;;;39.27;27.53;;;;;;;7.65;89.74;93637.66;5091934;28;20220;-73
2022/12/30 10:13:40;;;;;;;40.03;28.90;;;;;;;7.96;87.73;93635.31;5091507;28;20258;-73
2022/12/30 10:16:27;;;;;;;45.83;28.40;;;;;;;8.16;86.04;93635.59;5092117;28;20250;-72
2022/12/30 10:19:04;;;;;;;45.47;29.80;;;;;;;7.85;87.96;93627.56;5092691;28;20181;-73
2022/12/30 10:22:06;;;;;;;41.40;28.93;;;;;;;7.94;87.29;93626.94;5090841;28;20266;-73
2022/12/30 10:24:59;;;;;;;47.20;31.20;;;;;;;7.79;89.03;93624.13;5093327;28;21125;-73
2022/12/30 10:27:38;;;;;;;50.53;31.63;;;;;;;8.03;86.98;93615.13;5092262;28;20276;-73
2022/12/30 10:30:12;;;;;;;45.50;29.40;;;;;;;7.84;87.39;93616.38;5094186;28;20220;-74
2022/12/30 10:32:40;;;;;;;41.40;31.97;;;;;;;7.86;87.88;93605.78;5092203;28;20185;-74
2022/12/30 10:35:19;;;;;;;45.23;32.00;;;;;;;8.21;86.16;93611.47;5092147;28;20244;-73
2022/12/30 10:37:45;;;;;;;49.40;33.30;;;;;;;7.80;87.84;93598.91;5091756;28;20189;-74
2022/12/30 10:40:15;;;;;;;52.23;32.50;;;;;;;8.08;87.96;93597.00;5092147;28;20251;-74
2022/12/30 10:43:14;;;;;;;48.10;31.67;;;;;;;8.52;84.97;93599.69;5092987;28;20204;-74
2022/12/30 10:45:42;;;;;;;44.30;32.87;;;;;;;8.43;84.36;93603.72;5092361;28;20240;-73
2022/12/30 10:48:23;;;;;;;54.30;34.03;;;;;;;8.57;84.02;93600.53;5091981;28;20223;-74
2022/12/30 10:50:49;;;;;;;46.37;31.43;;;;;;;8.48;84.32;93596.00;5091813;28;20224;-73
2022/12/30 10:53:23;;;;;;;50.37;31.80;;;;;;;8.53;83.59;93594.22;5092620;28;20290;-73
2022/12/30 10:55:52;;;;;;;47.97;32.23;;;;;;;8.36;84.02;93572.69;5093054;28;20213;-74
2022/12/30 10:58:42;;;;;;;48.17;32.83;;;;;;;8.29;85.27;93589.50;5091788;28;20193;-74
2022/12/30 11:01:33;;;;;;;48.07;31.87;;;;;;;8.25;85.63;93578.78;5065363;28;20220;-74
2022/12/30 11:03:59;;;;;;;59.13;33.03;;;;;;;8.44;84.56;93581.88;5072621;28;20232;-74
2022/12/30 11:06:27;;;;;;;47.17;31.47;;;;;;;8.53;83.63;93575.25;5091171;28;20252;-73
2022/12/30 11:09:14;;;;;;;50.27;32.00;;;;;;;8.52;83.75;93578.84;5091161;28;20195;-73
2022/12/30 11:15:01;;;;;;;45.57;31.40;;;;;;;8.72;82.13;93560.88;5092012;28;20253;-75
2022/12/30 11:17:31;;;;;;;48.47;32.33;;;;;;;8.73;81.76;93565.84;5094189;28;20260;-74
2022/12/30 11:20:07;;;;;;;47.87;30.70;;;;;;;8.53;82.95;93570.81;5091532;28;20241;-74
2022/12/30 11:22:32;;;;;;;43.47;30.50;;;;;;;8.57;83.13;93568.50;5091918;28;20208;-73
2022/12/30 11:25:03;;;;;;;47.97;30.50;;;;;;;8.87;80.66;93550.66;5092815;28;20231;-73
2022/12/30 11:27:56;;;;;;;47.87;31.27;;;;;;;8.75;80.98;93535.16;5090569;28;20176;-73
2022/12/30 11:30:39;;;;;;;49.57;30.50;;;;;;;8.69;81.89;93566.56;5066324;28;20227;-73
2022/12/30 11:33:14;;;;;;;43.97;30.23;;;;;;;8.71;82.66;93564.50;5090418;28;20204;-73
2022/12/30 11:35:43;;;;;;;45.30;31.80;;;;;;;8.79;82.38;93562.28;5089909;28;20216;-73
2022/12/30 11:38:35;;;;;;;44.03;30.10;;;;;;;8.65;83.47;93568.09;5092081;28;20204;-73
2022/12/30 11:41:13;;;;;;;42.57;28.40;;;;;;;8.54;84.06;93574.19;5092524;28;20224;-73
2022/12/30 11:43:38;;;;;;;42.73;27.93;;;;;;;8.65;83.13;93561.09;5089142;28;20264;-73
2022/12/30 11:46:08;;;;;;;43.30;31.13;;;;;;;8.66;82.81;93559.25;5091445;28;20224;-74
2022/12/30 11:48:37;;;;;;;46.53;30.60;;;;;;;9.10;81.11;93560.78;5090721;28;20173;-73
2022/12/30 11:51:14;;;;;;;41.33;29.07;;;;;;;9.12;80.76;93571.75;5090620;28;20231;-74
2022/12/30 11:53:40;;;;;;;49.07;27.93;;;;;;;9.10;80.58;93564.16;5091088;28;20191;-73
2022/12/30 11:56:06;;;;;;;47.27;30.90;;;;;;;8.87;81.50;93558.44;5089705;28;20252;-73
2022/12/30 11:58:36;;;;;;;43.23;30.73;;;;;;;8.88;81.86;93560.00;5090664;28;20241;-74
2022/12/30 12:01:11;;;;;;;43.87;30.43;;;;;;;8.91;81.10;93559.53;5089476;28;20312;-74
2022/12/30 12:03:47;;;;;;;49.10;32.40;;;;;;;8.88;80.87;93560.00;5089799;28;20303;-74
2022/12/30 12:06:13;;;;;;;50.30;32.83;;;;;;;8.74;82.09;93564.03;5089703;28;20231;-73
2022/12/30 12:08:54;;;;;;;53.10;34.50;;;;;;;8.74;81.80;93558.81;5090703;28;20184;-73
2022/12/30 12:11:25;;;;;;;51.50;33.10;;;;;;;8.68;82.18;93544.19;5090524;28;20269;-74
2022/12/30 12:14:16;;;;;;;48.43;30.60;;;;;;;8.79;81.80;93556.28;5088208;28;20200;-73
2022/12/30 12:16:44;;;;;;;45.00;31.90;;;;;;;9.01;81.18;93559.66;5090508;28;20192;-74
2022/12/30 12:19:30;;;;;;;52.40;31.47;;;;;;;9.05;80.10;93560.72;5090437;28;20236;-73
2022/12/30 12:22:01;;;;;;;44.73;30.17;;;;;;;8.97;80.84;93556.72;5089766;28;20185;-74
2022/12/30 12:24:32;;;;;;;45.03;31.77;;;;;;;9.08;80.34;93555.00;5089221;28;20236;-74
2022/12/30 12:27:05;;;;;;;48.77;31.23;;;;;;;9.45;78.76;93561.09;5091117;28;20192;-75